createdAt,value
2022-12-02T00:02:16.878Z,101281.02
2022-12-02T00:05:15.501Z,101277.15
2022-12-02T00:08:19.913Z,101273.83
2022-12-02T00:11:31.822Z,101270.67
2022-12-02T00:14:35.373Z,101272.95
2022-12-02T00:17:23.975Z,101269.40
2022-12-02T00:20:12.152Z,101268.61
2022-12-02T00:22:59.401Z,101269.59
2022-12-02T00:25:51.307Z,101267.30
2022-12-02T00:28:39.219Z,101262.39
2022-12-02T00:31:26.911Z,101260.64
2022-12-02T00:34:14.235Z,101266.08
2022-12-02T00:37:01.930Z,101272.09
2022-12-02T00:39:49.482Z,101273.70
2022-12-02T00:42:36.861Z,101271.05
2022-12-02T00:45:43.277Z,101270.48
2022-12-02T00:48:31.285Z,101270.09
2022-12-02T00:51:18.742Z,101267.65
2022-12-02T00:54:08.231Z,101266.20
2022-12-02T00:56:55.786Z,101264.11
2022-12-02T00:59:43.982Z,101262.88
2022-12-02T01:02:32.089Z,101255.80
2022-12-02T01:05:19.507Z,101255.52
2022-12-02T01:08:07.166Z,101251.34
2022-12-02T01:10:55.692Z,101249.58
2022-12-02T01:13:43.752Z,101253.43
2022-12-02T01:16:31.777Z,101251.21
2022-12-02T01:19:19.587Z,101253.73
2022-12-02T01:22:07.496Z,101251.86
2022-12-02T01:24:54.886Z,101250.63
2022-12-02T01:27:42.691Z,101247.30
2022-12-02T01:30:30.462Z,101246.48
2022-12-02T01:33:18.143Z,101252.02
2022-12-02T01:36:06.306Z,101258.04
2022-12-02T01:38:53.787Z,101255.92
2022-12-02T01:41:41.166Z,101254.20
2022-12-02T01:44:29.611Z,101251.72
2022-12-02T01:47:17.696Z,101255.35
2022-12-02T01:50:08.955Z,101255.05
2022-12-02T01:52:58.647Z,101253.23
2022-12-02T01:55:46.457Z,101245.84
2022-12-02T01:58:33.885Z,101243.35
2022-12-02T02:01:24.138Z,101238.76
2022-12-02T02:04:12.916Z,101240.39
2022-12-02T02:07:00.419Z,101237.53
2022-12-02T02:09:48.904Z,101241.85
2022-12-02T02:12:37.235Z,101238.02
2022-12-02T02:15:25.680Z,101237.91
2022-12-02T02:18:16.203Z,101236.48
2022-12-02T02:21:04.062Z,101234.40
2022-12-02T02:23:51.990Z,101229.42
2022-12-02T02:26:39.385Z,101236.73
2022-12-02T02:29:27.117Z,101234.13
2022-12-02T02:32:15.516Z,101231.38
2022-12-02T02:35:05.132Z,101233.48
2022-12-02T02:37:54.778Z,101233.12
2022-12-02T02:40:43.695Z,101232.27
2022-12-02T02:43:32.220Z,101235.75
2022-12-02T02:46:20.634Z,101236.25
2022-12-02T02:49:07.958Z,101237.78
2022-12-02T02:51:55.533Z,101234.17
2022-12-02T02:54:43.120Z,101238.54
2022-12-02T02:57:32.122Z,101235.32
2022-12-02T03:00:22.995Z,101234.70
2022-12-02T03:03:13.070Z,101234.39
2022-12-02T03:06:04.667Z,101230.14
2022-12-02T03:08:53.355Z,101231.49
2022-12-02T03:11:43.352Z,101230.07
2022-12-02T03:14:31.035Z,101233.23
2022-12-02T03:17:18.706Z,101231.33
2022-12-02T03:20:07.221Z,101235.68
2022-12-02T03:22:54.956Z,101236.15
2022-12-02T03:25:42.668Z,101234.81
2022-12-02T03:28:31.060Z,101239.36
2022-12-02T03:31:18.748Z,101238.29
2022-12-02T03:34:08.498Z,101237.86
2022-12-02T03:36:57.886Z,101236.06
2022-12-02T03:39:46.036Z,101232.98
2022-12-02T03:42:33.513Z,101232.56
2022-12-02T03:45:22.101Z,101232.34
2022-12-02T03:48:10.887Z,101241.09
2022-12-02T03:50:58.653Z,101235.17
2022-12-02T03:53:46.603Z,101233.08
2022-12-02T03:56:42.276Z,101232.72
2022-12-02T03:59:30.146Z,101229.94
2022-12-02T04:02:17.432Z,101230.31
2022-12-02T04:05:05.519Z,101230.02
2022-12-02T04:07:53.497Z,101224.10
2022-12-02T04:10:40.817Z,101222.98
2022-12-02T04:13:28.718Z,101226.55
2022-12-02T04:16:16.548Z,101226.68
2022-12-02T04:19:04.348Z,101221.43
2022-12-02T04:21:52.241Z,101216.85
2022-12-02T04:24:39.508Z,101221.88
2022-12-02T04:27:27.138Z,101222.98
2022-12-02T04:30:15.082Z,101222.73
2022-12-02T04:33:03.397Z,101226.95
2022-12-02T04:35:51.062Z,101220.36
2022-12-02T04:38:39.096Z,101223.15
2022-12-02T04:41:29.356Z,101222.38
2022-12-02T04:44:18.365Z,101221.10
2022-12-02T04:47:05.856Z,101220.31
2022-12-02T04:49:53.418Z,101222.20
2022-12-02T04:52:41.203Z,101220.10
2022-12-02T04:55:29.131Z,101220.77
2022-12-02T04:58:16.736Z,101221.69
2022-12-02T05:01:05.085Z,101221.55
2022-12-02T05:03:52.753Z,101224.67
2022-12-02T05:06:40.232Z,101225.70
2022-12-02T05:09:27.908Z,101222.39
2022-12-02T05:12:15.884Z,101221.91
2022-12-02T05:15:04.285Z,101222.08
2022-12-02T05:17:51.694Z,101223.29
2022-12-02T05:20:39.174Z,101223.61
2022-12-02T05:23:27.061Z,101220.98
2022-12-02T05:26:14.675Z,101226.60
2022-12-02T05:29:02.181Z,101223.27
2022-12-02T05:31:49.982Z,101218.86
2022-12-02T05:34:37.460Z,101217.06
2022-12-02T05:37:24.928Z,101218.26
2022-12-02T05:40:12.787Z,101221.23
2022-12-02T05:43:16.447Z,101220.76
2022-12-02T05:46:13.850Z,101222.73
2022-12-02T05:49:01.507Z,101223.00
2022-12-02T05:51:57.390Z,101219.20
2022-12-02T05:54:44.974Z,101221.55
2022-12-02T05:57:32.757Z,101223.00
2022-12-02T06:00:23.399Z,101221.95
2022-12-02T06:03:19.543Z,101226.14
2022-12-02T06:06:10.755Z,101219.13
2022-12-02T06:08:58.473Z,101224.23
2022-12-02T06:11:48.220Z,101233.20
2022-12-02T06:14:35.804Z,101230.67
2022-12-02T06:17:23.502Z,101233.36
2022-12-02T06:20:24.069Z,101232.83
2022-12-02T06:23:18.877Z,101231.95
2022-12-02T06:26:06.537Z,101234.73
2022-12-02T06:29:03.475Z,101234.57
2022-12-02T06:31:50.970Z,101232.70
2022-12-02T06:34:43.424Z,101236.30
2022-12-02T06:37:31.379Z,101242.05
2022-12-02T06:40:33.102Z,101248.86
2022-12-02T06:43:27.535Z,101249.95
2022-12-02T06:46:20.442Z,101251.36
2022-12-02T06:49:30.465Z,101257.00
2022-12-02T06:52:23.050Z,101258.23
2022-12-02T06:55:22.909Z,101256.63
2022-12-02T06:58:30.479Z,101257.58
2022-12-02T07:01:33.671Z,101260.73
2022-12-02T07:04:45.813Z,101260.56
2022-12-02T07:07:36.220Z,101262.50
2022-12-02T07:10:30.371Z,101258.48
2022-12-02T07:13:20.133Z,101263.32
2022-12-02T07:16:36.552Z,101261.32
2022-12-02T07:19:38.923Z,101262.55
2022-12-02T07:22:41.268Z,101266.91
2022-12-02T07:25:51.064Z,101271.66
2022-12-02T07:28:44.674Z,101273.77
2022-12-02T07:31:32.702Z,101271.62
2022-12-02T07:34:20.486Z,101271.46
2022-12-02T07:37:07.799Z,101269.71
2022-12-02T07:39:55.466Z,101272.73
2022-12-02T07:42:43.853Z,101276.10
2022-12-02T07:45:31.554Z,101271.27
2022-12-02T07:48:19.092Z,101263.79
2022-12-02T07:51:06.876Z,101270.95
2022-12-02T07:53:54.842Z,101272.73
2022-12-02T07:56:42.841Z,101270.48
2022-12-02T07:59:30.951Z,101268.64
2022-12-02T08:02:19.087Z,101268.00
2022-12-02T08:05:07.454Z,101266.55
2022-12-02T08:07:55.574Z,101267.01
2022-12-02T08:10:43.235Z,101265.23
2022-12-02T08:13:30.837Z,101269.04
2022-12-02T08:16:18.340Z,101270.91
2022-12-02T08:19:06.103Z,101274.70
2022-12-02T08:21:53.755Z,101278.12
2022-12-02T08:24:41.528Z,101280.10
2022-12-02T08:27:29.476Z,101286.74
2022-12-02T08:30:17.686Z,101283.27
2022-12-02T08:33:05.102Z,101283.46
2022-12-02T08:35:52.661Z,101283.87
2022-12-02T08:38:40.198Z,101279.38
2022-12-02T08:41:27.764Z,101278.32
2022-12-02T08:44:15.165Z,101286.92
2022-12-02T08:47:03.479Z,101288.40
2022-12-02T08:49:50.901Z,101287.48
2022-12-02T08:52:38.447Z,101288.66
2022-12-02T08:55:27.394Z,101292.45
2022-12-02T08:58:15.178Z,101294.03
2022-12-02T09:01:03.167Z,101297.88
2022-12-02T09:03:50.972Z,101286.23
2022-12-02T09:06:38.740Z,101292.83
2022-12-02T09:09:26.297Z,101298.00
2022-12-02T09:12:13.648Z,101293.61
2022-12-02T09:15:01.246Z,101282.09
2022-12-02T09:17:49.749Z,101272.25
2022-12-02T09:20:37.529Z,101273.83
2022-12-02T09:23:25.308Z,101269.97
2022-12-02T09:26:12.544Z,101267.86
2022-12-02T09:29:00.430Z,101262.71
2022-12-02T09:31:48.125Z,101258.96
2022-12-02T09:34:35.713Z,101258.56
2022-12-02T09:37:25.628Z,101262.84
2022-12-02T09:40:14.926Z,101268.24
2022-12-02T09:43:05.100Z,101271.61
2022-12-02T09:45:52.561Z,101272.41
2022-12-02T09:48:40.304Z,101273.77
2022-12-02T09:51:27.760Z,101273.28
2022-12-02T09:54:17.085Z,101266.16
2022-12-02T09:57:13.873Z,101263.70
2022-12-02T10:00:09.084Z,101264.88
2022-12-02T10:02:56.726Z,101266.72
2022-12-02T10:05:44.622Z,101268.38
2022-12-02T10:08:33.236Z,101266.42
2022-12-02T10:11:30.341Z,101267.50
2022-12-02T10:14:17.819Z,101271.94
2022-12-02T10:17:31.822Z,101275.65
2022-12-02T10:20:26.526Z,101272.83
2022-12-02T10:23:23.420Z,101268.23
2022-12-02T10:26:14.404Z,101266.48
2022-12-02T10:29:08.917Z,101268.58
2022-12-02T10:32:20.874Z,101267.92
2022-12-02T10:35:10.692Z,101264.06
2022-12-02T10:37:58.245Z,101263.15
2022-12-02T10:40:46.004Z,101259.77
2022-12-02T10:43:34.033Z,101263.98
2022-12-02T10:46:23.248Z,101258.98
2022-12-02T10:49:25.987Z,101259.01
2022-12-02T10:52:14.924Z,101258.05
2022-12-02T10:55:03.921Z,101258.09
2022-12-02T10:57:51.830Z,101258.77
2022-12-02T11:00:43.815Z,101253.90
2022-12-02T11:03:33.218Z,101249.34
2022-12-02T11:06:21.713Z,101245.69
2022-12-02T11:12:54.705Z,101238.79
2022-12-02T11:15:51.360Z,101235.24
2022-12-02T11:18:39.085Z,101236.11
2022-12-02T11:21:30.365Z,101239.98
2022-12-02T11:24:24.133Z,101245.98
2022-12-02T11:27:18.005Z,101255.55
2022-12-02T11:30:07.119Z,101255.54
2022-12-02T11:32:55.196Z,101254.63
2022-12-02T11:36:14.877Z,101250.86
2022-12-02T11:39:07.925Z,101244.70
2022-12-02T11:41:58.460Z,101244.78
2022-12-02T11:44:46.345Z,101239.04
2022-12-02T11:47:34.319Z,101234.61
2022-12-02T11:50:39.584Z,101229.98
2022-12-02T11:53:27.259Z,101226.05
2022-12-02T11:56:18.817Z,101223.38
2022-12-02T11:59:27.118Z,101222.23
2022-12-02T12:02:18.467Z,101219.46
2022-12-02T12:05:07.851Z,101219.52
2022-12-02T12:08:01.278Z,101219.58
2022-12-02T12:11:16.200Z,101216.86
2022-12-02T12:14:14.187Z,101217.20
2022-12-02T12:17:29.562Z,101220.08
2022-12-02T12:20:17.248Z,101218.27
2022-12-02T12:23:41.614Z,101218.31
2022-12-02T12:26:34.604Z,101217.19
2022-12-02T12:29:28.253Z,101218.95
2022-12-02T12:32:15.933Z,101218.64
2022-12-02T12:35:03.227Z,101221.73
2022-12-02T12:37:50.682Z,101223.74
2022-12-02T12:40:38.219Z,101225.48
2022-12-02T12:43:25.786Z,101222.27
2022-12-02T12:46:13.911Z,101221.13
2022-12-02T12:49:01.728Z,101224.08
2022-12-02T12:51:49.722Z,101226.75
2022-12-02T12:54:37.495Z,101223.20
2022-12-02T12:57:25.135Z,101220.02
2022-12-02T13:00:13.639Z,101218.02
2022-12-02T13:03:01.577Z,101217.58
2022-12-02T13:05:50.864Z,101220.77
2022-12-02T13:08:38.392Z,101223.75
2022-12-02T13:11:26.568Z,101220.88
2022-12-02T13:14:14.178Z,101224.04
2022-12-02T13:17:01.818Z,101226.52
2022-12-02T13:19:49.965Z,101229.17
2022-12-02T13:22:37.715Z,101234.30
2022-12-02T13:25:25.293Z,101234.38
2022-12-02T13:28:12.905Z,101239.25
2022-12-02T13:31:01.580Z,101238.38
2022-12-02T13:33:50.924Z,101237.67
2022-12-02T13:36:38.447Z,101238.04
2022-12-02T13:39:25.830Z,101236.94
2022-12-02T13:42:13.336Z,101233.10
2022-12-02T13:45:01.191Z,101222.14
2022-12-02T13:47:51.857Z,101220.60
2022-12-02T13:50:40.929Z,101227.61
2022-12-02T13:53:30.243Z,101231.30
2022-12-02T13:56:17.684Z,101236.19
2022-12-02T13:59:05.358Z,101232.63
2022-12-02T14:01:52.875Z,101235.52
2022-12-02T14:04:40.645Z,101241.16
2022-12-02T14:07:28.438Z,101244.84
2022-12-02T14:10:16.133Z,101242.19
2022-12-02T14:13:04.622Z,101243.95
2022-12-02T14:15:52.185Z,101244.98
2022-12-02T14:18:40.248Z,101242.73
2022-12-02T14:21:28.005Z,101242.19
2022-12-02T14:24:15.456Z,101246.02
2022-12-02T14:27:02.797Z,101239.79
2022-12-02T14:29:50.719Z,101243.86
2022-12-02T14:32:38.180Z,101247.26
2022-12-02T14:35:25.617Z,101245.75
2022-12-02T14:38:15.600Z,101246.81
2022-12-02T14:41:03.956Z,101241.95
2022-12-02T14:43:53.211Z,101238.86
2022-12-02T14:46:46.937Z,101240.31
2022-12-02T14:49:40.140Z,101242.37
2022-12-02T14:52:28.499Z,101250.39
2022-12-02T14:55:15.995Z,101251.16
2022-12-02T14:58:03.787Z,101250.17
2022-12-02T15:00:51.451Z,101251.05
2022-12-02T15:03:38.901Z,101251.23
2022-12-02T15:06:26.407Z,101249.88
2022-12-02T15:09:14.830Z,101250.01
2022-12-02T15:12:02.739Z,101246.95
2022-12-02T15:14:50.985Z,101254.31
2022-12-02T15:17:39.601Z,101258.87
2022-12-02T15:20:27.118Z,101258.29
2022-12-02T15:23:14.914Z,101263.60
2022-12-02T15:26:03.558Z,101261.73
2022-12-02T15:28:51.715Z,101265.98
2022-12-02T15:31:39.153Z,101278.99
2022-12-02T15:34:27.097Z,101281.27
2022-12-02T15:37:14.732Z,101288.21
2022-12-02T15:40:02.608Z,101286.83
2022-12-02T15:42:50.590Z,101284.23
2022-12-02T15:45:40.302Z,101278.70
2022-12-02T15:48:28.113Z,101274.54
2022-12-02T15:51:15.837Z,101280.11
2022-12-02T15:54:03.889Z,101280.27
2022-12-02T15:56:54.519Z,101277.84
2022-12-02T15:59:42.835Z,101277.01
2022-12-02T16:02:30.635Z,101273.86
2022-12-02T16:05:18.283Z,101274.17
2022-12-02T16:08:05.931Z,101270.53
2022-12-02T16:10:53.362Z,101272.30
2022-12-02T16:13:41.202Z,101267.65
2022-12-02T16:16:28.971Z,101267.70
2022-12-02T16:19:16.911Z,101266.14
2022-12-02T16:22:04.490Z,101269.10
2022-12-02T16:24:52.487Z,101274.83
2022-12-02T16:27:40.316Z,101275.52
2022-12-02T16:30:28.118Z,101279.16
2022-12-02T16:33:15.489Z,101284.55
2022-12-02T16:36:04.047Z,101284.04
2022-12-02T16:38:51.846Z,101283.69
2022-12-02T16:41:39.351Z,101280.76
2022-12-02T16:44:27.240Z,101277.98
2022-12-02T16:47:16.048Z,101275.54
2022-12-02T16:50:04.861Z,101279.89
2022-12-02T16:52:52.546Z,101278.13
2022-12-02T16:55:40.355Z,101279.49
2022-12-02T16:58:27.926Z,101282.28
2022-12-02T17:01:15.632Z,101286.84
2022-12-02T17:04:03.317Z,101290.56
2022-12-02T17:06:50.723Z,101291.80
2022-12-02T17:09:38.226Z,101295.80
2022-12-02T17:12:25.643Z,101295.29
2022-12-02T17:15:13.791Z,101298.61
2022-12-02T17:18:01.556Z,101295.30
2022-12-02T17:20:55.060Z,101293.40
2022-12-02T17:23:43.264Z,101292.56
2022-12-02T17:26:30.961Z,101293.79
2022-12-02T17:29:18.362Z,101294.00
2022-12-02T17:32:05.996Z,101299.38
2022-12-02T17:34:53.634Z,101298.72
2022-12-02T17:37:41.416Z,101297.18
2022-12-02T17:40:28.716Z,101296.52
2022-12-02T17:43:16.435Z,101291.48
2022-12-02T17:46:05.107Z,101287.69
2022-12-02T17:48:52.927Z,101286.30
2022-12-02T17:51:40.381Z,101287.34
2022-12-02T17:54:28.132Z,101294.63
2022-12-02T17:57:16.014Z,101295.15
2022-12-02T18:00:05.612Z,101294.44
2022-12-02T18:02:53.239Z,101287.66
2022-12-02T18:05:40.695Z,101291.11
2022-12-02T18:08:28.703Z,101292.68
2022-12-02T18:11:16.209Z,101290.95
2022-12-02T18:14:03.724Z,101296.01
2022-12-02T18:16:51.259Z,101295.82
2022-12-02T18:19:38.958Z,101291.14
2022-12-02T18:22:26.685Z,101288.89
2022-12-02T18:25:14.999Z,101290.09
2022-12-02T18:28:03.214Z,101291.14
2022-12-02T18:30:50.939Z,101290.98
2022-12-02T18:33:38.304Z,101289.09
2022-12-02T18:36:26.128Z,101292.76
2022-12-02T18:39:13.860Z,101296.94
2022-12-02T18:42:01.676Z,101300.08
2022-12-02T18:44:49.320Z,101302.86
2022-12-02T18:47:37.037Z,101309.85
2022-12-02T18:50:24.988Z,101303.44
2022-12-02T18:53:12.887Z,101301.89
2022-12-02T18:56:00.395Z,101299.96
2022-12-02T18:58:47.848Z,101297.16
2022-12-02T19:01:35.442Z,101294.39
2022-12-02T19:04:23.563Z,101299.45
2022-12-02T19:07:11.152Z,101299.27
2022-12-02T19:09:58.925Z,101295.09
2022-12-02T19:12:46.589Z,101290.92
2022-12-02T19:15:38.717Z,101289.17
2022-12-02T19:18:26.582Z,101286.70
2022-12-02T19:21:14.520Z,101286.50
2022-12-02T19:24:02.346Z,101289.09
2022-12-02T19:26:50.081Z,101290.69
2022-12-02T19:29:37.376Z,101294.23
2022-12-02T19:32:24.793Z,101297.19
2022-12-02T19:35:14.452Z,101293.54
2022-12-02T19:38:05.835Z,101290.56
2022-12-02T19:40:56.508Z,101293.54
2022-12-02T19:43:44.126Z,101290.60
2022-12-02T19:46:32.061Z,101288.17
2022-12-02T19:49:19.951Z,101285.57
2022-12-02T19:52:07.830Z,101283.86
2022-12-02T19:54:55.674Z,101284.24
2022-12-02T19:57:43.940Z,101286.85
2022-12-02T20:00:33.416Z,101287.20
2022-12-02T20:03:21.097Z,101292.41
2022-12-02T20:06:08.843Z,101295.19
2022-12-02T20:08:56.533Z,101295.88
2022-12-02T20:11:45.698Z,101296.04
2022-12-02T20:14:33.431Z,101302.11
2022-12-02T20:17:21.127Z,101301.10
2022-12-02T20:20:13.132Z,101302.15
2022-12-02T20:23:00.896Z,101303.20
2022-12-02T20:25:48.375Z,101303.20
2022-12-02T20:28:36.277Z,101304.77
2022-12-02T20:31:24.181Z,101307.21
2022-12-02T20:34:12.020Z,101307.38
2022-12-02T20:36:59.862Z,101308.95
2022-12-02T20:39:47.476Z,101307.55
2022-12-02T20:42:35.089Z,101306.14
2022-12-02T20:45:24.028Z,101302.27
2022-12-02T20:48:11.870Z,101299.65
2022-12-02T20:50:59.831Z,101297.77
2022-12-02T20:53:47.619Z,101301.27
2022-12-02T20:56:35.603Z,101300.93
2022-12-02T20:59:23.661Z,101305.29
2022-12-02T21:02:11.908Z,101304.23
2022-12-02T21:05:00.094Z,101304.41
2022-12-02T21:07:48.037Z,101305.80
2022-12-02T21:10:35.793Z,101299.74
2022-12-02T21:13:23.297Z,101305.65
2022-12-02T21:16:11.218Z,101304.09
2022-12-02T21:18:59.056Z,101306.17
2022-12-02T21:21:46.685Z,101307.38
2022-12-02T21:24:36.991Z,101312.59
2022-12-02T21:27:24.822Z,101313.13
2022-12-02T21:30:14.215Z,101311.05
2022-12-02T21:33:01.914Z,101311.40
2022-12-02T21:35:49.412Z,101314.67
2022-12-02T21:38:36.872Z,101311.39
2022-12-02T21:41:24.496Z,101312.75
2022-12-02T21:44:11.975Z,101313.95
2022-12-02T21:46:59.986Z,101319.84
2022-12-02T21:49:49.489Z,101314.98
2022-12-02T21:52:37.230Z,101317.23
2022-12-02T21:55:24.895Z,101323.17
2022-12-02T21:58:12.810Z,101318.29
2022-12-02T22:01:18.979Z,101311.66
2022-12-02T22:04:10.484Z,101314.25
2022-12-02T22:07:18.983Z,101314.23
2022-12-02T22:10:20.405Z,101313.52
2022-12-02T22:13:08.466Z,101318.21
2022-12-02T22:15:56.159Z,101311.25
2022-12-02T22:18:43.849Z,101311.61
2022-12-02T22:21:31.564Z,101312.14
2022-12-02T22:24:19.218Z,101313.33
2022-12-02T22:27:06.926Z,101308.98
2022-12-02T22:29:54.902Z,101300.45
2022-12-02T22:32:44.522Z,101300.92
2022-12-02T22:35:32.007Z,101298.66
2022-12-02T22:38:19.570Z,101296.75
2022-12-02T22:41:07.244Z,101303.22
2022-12-02T22:43:54.807Z,101303.95
2022-12-02T22:46:42.443Z,101305.88
2022-12-02T22:49:29.902Z,101302.23
2022-12-02T22:52:17.406Z,101307.61
2022-12-02T22:55:05.382Z,101310.74
2022-12-02T22:57:53.217Z,101310.79
2022-12-02T23:00:40.678Z,101304.94
2022-12-02T23:03:28.236Z,101302.39
2022-12-02T23:06:15.946Z,101299.65
2022-12-02T23:09:03.567Z,101300.70
2022-12-02T23:11:51.379Z,101292.55
2022-12-02T23:14:39.121Z,101289.95
2022-12-02T23:17:26.535Z,101287.35
2022-12-02T23:20:14.859Z,101290.46
2022-12-02T23:23:02.728Z,101289.61
2022-12-02T23:25:50.345Z,101292.90
2022-12-02T23:28:37.758Z,101292.21
2022-12-02T23:31:25.705Z,101293.77
2022-12-02T23:34:13.936Z,101295.17
2022-12-02T23:37:01.407Z,101285.62
2022-12-02T23:39:49.142Z,101283.72
2022-12-02T23:42:38.474Z,101281.64
2022-12-02T23:45:26.636Z,101283.54
2022-12-02T23:48:14.333Z,101279.71
2022-12-02T23:51:03.392Z,101277.64
2022-12-02T23:53:51.099Z,101276.08
2022-12-02T23:56:38.665Z,101274.70
2022-12-02T23:59:26.308Z,101270.52
